Time;durP1;ratioP1;P1;durP2;ratioP2;P2;SDS_P1;SDS_P2;PMS_P1;PMS_P2;Temp;Humidity;BMP_temperature;BMP_pressure;BME280_temperature;BME280_humidity;BME280_pressure;Samples;Min_cycle;Max_cycle;Signal;HPM_P1;HPM_P2
2022/03/16 00:00:14;;;;;;;1.23;1.00;;;;;;;7.15;54.19;96468.81;5089800;28;21038;-52
2022/03/16 00:02:44;;;;;;;0.40;0.30;;;;;;;7.18;54.16;96478.91;5090881;28;20433;-52
2022/03/16 00:05:14;;;;;;;0.30;0.20;;;;;;;6.79;56.23;96466.13;5091599;28;20451;-52
2022/03/16 00:07:43;;;;;;;0.50;0.47;;;;;;;6.28;60.30;96468.97;5109630;28;20522;-52
2022/03/16 00:10:13;;;;;;;0.33;0.30;;;;;;;6.09;64.60;96394.44;5132441;28;20438;-52
2022/03/16 00:12:43;;;;;;;0.67;0.30;;;;;;;7.05;58.68;96457.97;5132712;27;20426;-52
2022/03/16 00:15:12;;;;;;;1.30;1.20;;;;;;;6.25;59.59;96372.81;5132533;28;20444;-52
2022/03/16 00:17:40;;;;;;;0.40;0.30;;;;;;;6.73;59.54;96449.34;5132140;28;20498;-53
2022/03/16 00:20:10;;;;;;;0.73;0.73;;;;;;;6.73;59.69;96416.94;5130714;28;20491;-52
2022/03/16 00:22:38;;;;;;;0.83;0.80;;;;;;;6.98;58.02;96441.41;5130695;27;20518;-52
2022/03/16 00:25:07;;;;;;;0.40;0.40;;;;;;;7.21;56.66;96441.53;5132528;28;20804;-52
2022/03/16 00:27:37;;;;;;;0.30;0.20;;;;;;;6.70;60.28;96436.63;5132163;28;20452;-52
2022/03/16 00:30:06;;;;;;;0.40;0.40;;;;;;;6.53;60.20;96440.03;5131402;28;20522;-53
2022/03/16 00:32:34;;;;;;;0.40;0.40;;;;;;;6.14;63.02;96444.59;5130112;28;20462;-52
2022/03/16 00:35:03;;;;;;;0.53;0.53;;;;;;;5.92;65.65;96438.06;5130438;28;20461;-52
2022/03/16 00:37:32;;;;;;;1.10;1.10;;;;;;;5.84;66.08;96424.34;5130858;28;20498;-52
2022/03/16 00:40:01;;;;;;;0.60;0.60;;;;;;;6.27;65.26;96433.94;5131327;28;20977;-52
2022/03/16 00:42:29;;;;;;;2.70;1.40;;;;;;;6.25;63.97;96428.09;5130675;27;20462;-51
2022/03/16 00:44:59;;;;;;;2.40;1.60;;;;;;;5.72;65.37;96421.56;5133704;27;20942;-52
2022/03/16 00:47:28;;;;;;;0.37;0.27;;;;;;;5.59;67.51;96437.44;5135430;27;20517;-52
2022/03/16 00:49:56;;;;;;;0.40;0.40;;;;;;;5.30;67.95;96420.38;5135465;27;20465;-52
2022/03/16 00:52:25;;;;;;;2.33;0.50;;;;;;;5.04;70.33;96426.53;5135299;27;20590;-51
2022/03/16 00:54:53;;;;;;;0.60;0.60;;;;;;;4.99;74.36;96421.09;5134138;27;20513;-52
2022/03/16 00:57:21;;;;;;;1.57;1.47;;;;;;;5.61;72.36;96419.63;5134399;27;20517;-52
2022/03/16 00:59:50;;;;;;;0.30;0.20;;;;;;;6.05;67.85;96411.66;5135634;27;20816;-53
2022/03/16 01:02:20;;;;;;;0.50;0.50;;;;;;;5.75;68.32;96408.00;5133461;27;20434;-52
2022/03/16 01:04:48;;;;;;;1.00;0.50;;;;;;;6.06;67.18;96408.00;5134644;27;20457;-52
2022/03/16 01:07:17;;;;;;;2.10;1.23;;;;;;;6.13;64.55;96382.44;5135464;27;20545;-53
2022/03/16 01:09:45;;;;;;;0.40;0.30;;;;;;;6.02;65.37;96412.06;5133590;27;20521;-53
2022/03/16 01:12:13;;;;;;;0.40;0.40;;;;;;;5.73;66.96;96407.41;5133738;27;20499;-53
2022/03/16 01:14:42;;;;;;;0.50;0.47;;;;;;;5.50;68.16;96413.19;5135289;27;20423;-53
2022/03/16 01:17:10;;;;;;;0.47;0.23;;;;;;;5.45;72.26;96404.31;5135424;27;20469;-52
2022/03/16 01:19:40;;;;;;;0.30;0.20;;;;;;;5.69;69.36;96409.63;5135452;27;20462;-52
2022/03/16 01:22:09;;;;;;;1.90;0.77;;;;;;;5.50;71.30;96402.69;5134681;27;20514;-52
2022/03/16 01:24:37;;;;;;;0.30;0.20;;;;;;;5.42;72.84;96400.28;5135320;27;20470;-53
2022/03/16 01:27:06;;;;;;;0.30;0.20;;;;;;;5.38;71.72;96370.19;5134764;27;20517;-53
2022/03/16 01:29:34;;;;;;;0.30;0.20;;;;;;;5.80;69.41;96389.75;5135239;27;20522;-53
2022/03/16 01:32:03;;;;;;;0.30;0.23;;;;;;;5.96;67.33;96385.81;5135463;27;20497;-53
2022/03/16 01:34:31;;;;;;;0.30;0.30;;;;;;;5.83;68.26;96367.47;5135242;27;20935;-52
2022/03/16 01:37:03;;;;;;;0.30;0.20;;;;;;;5.74;67.57;96374.81;5135094;27;20541;-52
2022/03/16 01:39:31;;;;;;;0.43;0.43;;;;;;;5.75;67.43;96384.31;5133363;27;20474;-52
2022/03/16 01:41:59;;;;;;;0.50;0.50;;;;;;;5.78;67.81;96373.38;5133030;27;20455;-52
2022/03/16 01:44:46;;;;;;;0.30;0.20;;;;;;;5.73;67.15;96365.31;5133298;27;20419;-52
2022/03/16 01:47:16;;;;;;;0.40;0.40;;;;;;;5.76;67.48;96368.34;5134874;27;20426;-52
2022/03/16 01:49:45;;;;;;;1.20;1.17;;;;;;;5.84;67.08;96375.16;5135138;27;20418;-52
2022/03/16 01:52:19;;;;;;;0.40;0.40;;;;;;;5.76;66.55;96375.41;5134723;27;20426;-52
2022/03/16 01:54:47;;;;;;;0.30;0.20;;;;;;;5.68;67.69;96358.06;5134176;27;20536;-52
2022/03/16 01:57:16;;;;;;;0.40;0.40;;;;;;;5.34;71.38;96350.59;5134602;27;20466;-52
2022/03/16 01:59:45;;;;;;;0.77;0.77;;;;;;;5.22;72.43;96344.38;5135069;27;20537;-52
2022/03/16 02:02:15;;;;;;;0.53;0.53;;;;;;;5.43;71.72;96351.16;5134750;27;20477;-52
2022/03/16 02:04:44;;;;;;;0.30;0.20;;;;;;;5.32;70.23;96328.16;5134783;27;20418;-52
2022/03/16 02:07:13;;;;;;;0.30;0.20;;;;;;;5.53;69.37;96348.84;5132473;27;20493;-52
2022/03/16 02:09:42;;;;;;;0.33;0.20;;;;;;;5.53;68.30;96348.84;5134470;27;20525;-52
2022/03/16 02:12:13;;;;;;;0.30;0.20;;;;;;;4.83;70.09;96232.44;5132572;27;20450;-52
2022/03/16 02:14:41;;;;;;;0.50;0.40;;;;;;;5.54;70.23;96339.97;5132513;27;20434;-52
2022/03/16 02:17:10;;;;;;;0.30;0.20;;;;;;;5.54;69.33;96338.13;5133039;27;20863;-52
2022/03/16 02:19:38;;;;;;;0.40;0.30;;;;;;;5.21;73.20;96334.09;5134525;27;20474;-52
2022/03/16 02:22:13;;;;;;;0.30;0.20;;;;;;;5.51;70.21;96316.72;5134429;27;20945;-51
2022/03/16 02:24:43;;;;;;;0.30;0.20;;;;;;;5.29;72.44;96310.97;5134646;27;20434;-51
2022/03/16 02:27:12;;;;;;;0.40;0.40;;;;;;;5.49;70.75;96324.81;5134413;27;20547;-51
2022/03/16 02:29:40;;;;;;;0.50;0.47;;;;;;;5.54;70.39;96319.72;5132835;27;20462;-52
2022/03/16 02:32:09;;;;;;;0.50;0.47;;;;;;;5.58;70.80;96302.50;5134190;27;20509;-51
2022/03/16 02:34:38;;;;;;;0.40;0.30;;;;;;;5.50;70.84;96296.69;5134230;27;20516;-52
2022/03/16 02:37:06;;;;;;;0.60;0.60;;;;;;;5.39;71.97;96306.06;5132490;27;20442;-51
2022/03/16 02:39:35;;;;;;;1.13;1.03;;;;;;;5.48;71.84;96299.56;5132640;27;20557;-51
2022/03/16 02:42:06;;;;;;;0.30;0.20;;;;;;;5.65;69.85;96310.34;5133255;27;20501;-51
2022/03/16 02:44:34;;;;;;;0.30;0.20;;;;;;;5.19;72.03;96301.97;5133996;27;20463;-52
2022/03/16 02:47:08;;;;;;;5.70;0.70;;;;;;;4.84;76.87;96322.53;5134252;27;20418;-52
2022/03/16 02:49:37;;;;;;;1.27;1.27;;;;;;;4.24;82.43;96326.38;5133320;27;20994;-52
2022/03/16 02:52:08;;;;;;;0.77;0.77;;;;;;;4.06;87.00;96320.94;5133019;27;20431;-51
2022/03/16 02:54:37;;;;;;;0.40;0.30;;;;;;;4.52;83.48;96328.72;5133572;27;20484;-51
2022/03/16 02:57:07;;;;;;;0.80;0.80;;;;;;;4.11;83.11;96284.41;5132111;27;20882;-51
2022/03/16 02:59:36;;;;;;;0.40;0.37;;;;;;;4.32;85.40;96319.09;5131436;27;20557;-51
2022/03/16 03:02:05;;;;;;;0.30;0.30;;;;;;;4.86;81.25;96323.94;5133203;27;20430;-51
2022/03/16 03:04:33;;;;;;;0.30;0.20;;;;;;;5.01;77.61;96316.59;5133491;27;20946;-51
2022/03/16 03:07:02;;;;;;;0.37;0.30;;;;;;;4.87;79.47;96322.13;5132770;27;20570;-51
2022/03/16 03:09:30;;;;;;;0.73;0.73;;;;;;;5.02;77.65;96331.34;5133290;27;20510;-52
2022/03/16 03:11:59;;;;;;;0.30;0.20;;;;;;;4.79;79.34;96317.09;5131590;27;20505;-51
2022/03/16 03:14:29;;;;;;;1.83;1.73;;;;;;;4.35;81.64;96297.66;5132773;27;20510;-51
2022/03/16 03:16:59;;;;;;;1.77;1.67;;;;;;;4.64;82.09;96322.63;5133638;27;20434;-51
2022/03/16 03:19:27;;;;;;;7.10;1.90;;;;;;;4.18;85.89;96321.94;5133348;27;20470;-51
2022/03/16 03:21:56;;;;;;;0.30;0.20;;;;;;;4.22;85.88;96308.22;5132795;27;20513;-51
2022/03/16 03:24:24;;;;;;;0.30;0.30;;;;;;;4.55;83.15;96304.69;5131778;27;20431;-51
2022/03/16 03:26:53;;;;;;;0.50;0.20;;;;;;;4.50;83.39;96310.56;5133303;27;20419;-52
2022/03/16 03:29:21;;;;;;;0.30;0.30;;;;;;;4.50;82.97;96310.56;5132984;27;20438;-51
2022/03/16 03:31:51;;;;;;;0.43;0.43;;;;;;;4.79;81.02;96312.66;5132986;27;20801;-51
2022/03/16 03:34:20;;;;;;;0.83;0.83;;;;;;;5.00;78.48;96314.19;5133159;27;20423;-51
2022/03/16 03:36:48;;;;;;;0.30;0.20;;;;;;;5.07;78.43;96309.69;5131715;27;20431;-51
2022/03/16 03:39:17;;;;;;;0.40;0.40;;;;;;;5.05;76.82;96315.19;5132154;27;20549;-51
2022/03/16 03:41:45;;;;;;;12.33;0.80;;;;;;;4.53;83.21;96314.59;5132458;27;20455;-52
2022/03/16 03:44:13;;;;;;;0.40;0.33;;;;;;;4.85;82.18;96308.41;5130777;27;20462;-52
2022/03/16 03:46:42;;;;;;;0.43;0.43;;;;;;;4.77;82.67;96306.81;5131082;27;20446;-52
2022/03/16 03:49:12;;;;;;;0.50;0.50;;;;;;;5.01;79.38;96298.22;5132173;27;20504;-52
2022/03/16 03:51:40;;;;;;;0.47;0.30;;;;;;;5.19;77.92;96296.72;5133093;27;20997;-52
2022/03/16 03:54:09;;;;;;;0.30;0.20;;;;;;;5.27;76.57;96291.19;5132790;27;20539;-52
2022/03/16 03:56:37;;;;;;;0.30;0.20;;;;;;;5.52;73.78;96292.03;5132538;27;20878;-52
2022/03/16 03:59:06;;;;;;;0.30;0.30;;;;;;;5.35;74.34;96301.44;5132947;27;20466;-52
2022/03/16 04:01:34;;;;;;;0.70;0.70;;;;;;;4.86;79.90;96288.97;5132780;27;20459;-52
2022/03/16 04:04:03;;;;;;;0.30;0.20;;;;;;;5.04;79.81;96287.28;5132934;27;20503;-52
2022/03/16 04:06:32;;;;;;;18.37;0.63;;;;;;;4.95;80.57;96299.06;5132130;27;20423;-52
2022/03/16 04:09:01;;;;;;;0.30;0.20;;;;;;;5.03;80.61;96296.16;5130677;28;20470;-52
2022/03/16 04:11:29;;;;;;;0.30;0.20;;;;;;;5.01;81.55;96294.78;5132633;28;20517;-52
2022/03/16 04:13:58;;;;;;;0.40;0.30;;;;;;;4.57;80.46;96216.03;5132414;28;20525;-52
2022/03/16 04:16:26;;;;;;;0.40;0.30;;;;;;;5.23;78.41;96298.72;5133011;27;20454;-52
2022/03/16 04:18:55;;;;;;;0.30;0.20;;;;;;;4.82;82.43;96288.63;5132852;27;20757;-52
2022/03/16 04:21:23;;;;;;;0.30;0.20;;;;;;;4.70;83.23;96292.91;5135033;27;20545;-52
2022/03/16 04:23:54;;;;;;;0.50;0.50;;;;;;;4.97;80.88;96301.47;5134961;27;20847;-52
2022/03/16 04:26:22;;;;;;;0.43;0.43;;;;;;;4.92;79.91;96275.03;5134983;27;20977;-52
2022/03/16 04:28:50;;;;;;;1.33;1.33;;;;;;;4.82;80.71;96274.69;5135531;27;20459;-52
2022/03/16 04:31:19;;;;;;;0.30;0.20;;;;;;;4.69;83.23;96290.47;5135651;27;20957;-52
2022/03/16 04:33:47;;;;;;;0.30;0.20;;;;;;;4.74;83.64;96296.72;5136442;27;20426;-52
2022/03/16 04:36:15;;;;;;;0.40;0.40;;;;;;;4.57;86.98;96297.41;5136202;27;20509;-52
2022/03/16 04:38:44;;;;;;;0.57;0.57;;;;;;;4.72;86.76;96303.19;5136800;27;20446;-52
2022/03/16 04:41:14;;;;;;;0.30;0.20;;;;;;;4.88;83.94;96303.53;5135603;27;21215;-52
2022/03/16 04:43:42;;;;;;;1.30;1.20;;;;;;;4.76;85.04;96305.19;5135802;27;20471;-52
2022/03/16 04:46:10;;;;;;;0.73;0.60;;;;;;;4.76;85.05;96296.50;5134558;27;20982;-52
2022/03/16 04:48:39;;;;;;;0.30;0.30;;;;;;;4.70;84.30;96300.81;5136444;27;20447;-52
2022/03/16 04:51:07;;;;;;;0.40;0.40;;;;;;;4.79;84.73;96299.53;5136188;27;20487;-52
2022/03/16 04:53:35;;;;;;;0.50;0.50;;;;;;;4.74;84.95;96304.59;5136120;27;20856;-52
2022/03/16 04:56:05;;;;;;;0.73;0.73;;;;;;;4.81;85.16;96308.00;5136170;27;20426;-52
2022/03/16 04:58:35;;;;;;;0.47;0.47;;;;;;;4.91;83.79;96299.66;5135303;27;20850;-52
2022/03/16 05:01:04;;;;;;;6.70;1.70;;;;;;;4.92;82.42;96293.41;5134926;27;20506;-52
2022/03/16 05:03:32;;;;;;;0.30;0.30;;;;;;;5.41;79.31;96284.84;5135735;27;20422;-52
2022/03/16 05:06:01;;;;;;;0.20;0.20;;;;;;;5.56;75.76;96270.38;5135817;27;20903;-52
2022/03/16 05:08:29;;;;;;;0.60;0.60;;;;;;;5.77;73.25;96285.75;5135869;27;20557;-52
2022/03/16 05:10:58;;;;;;;0.60;0.60;;;;;;;5.74;73.14;96280.91;5135635;27;20849;-52
2022/03/16 05:13:26;;;;;;;1.47;0.53;;;;;;;5.54;74.23;96288.16;5134473;27;20513;-52
2022/03/16 05:15:56;;;;;;;0.50;0.50;;;;;;;5.38;77.12;96272.13;5134654;27;20426;-53
2022/03/16 05:18:26;;;;;;;2.20;2.20;;;;;;;5.61;74.94;96264.47;5133838;27;20442;-53
2022/03/16 05:20:54;;;;;;;0.63;0.63;;;;;;;5.60;75.17;96270.72;5135639;27;20900;-53
2022/03/16 05:23:22;;;;;;;0.70;0.70;;;;;;;5.39;76.90;96268.47;5135944;27;20423;-53
2022/03/16 05:25:51;;;;;;;0.40;0.40;;;;;;;5.41;78.67;96267.25;5135339;27;20957;-54
2022/03/16 05:28:19;;;;;;;0.50;0.30;;;;;;;5.14;81.07;96261.34;5135551;27;20841;-53
2022/03/16 05:30:47;;;;;;;7.23;1.17;;;;;;;4.82;84.29;96261.53;5133430;27;20808;-53
2022/03/16 05:33:17;;;;;;;2.40;1.27;;;;;;;5.08;83.84;96275.31;5133218;27;20580;-54
2022/03/16 05:35:46;;;;;;;5.20;5.00;;;;;;;5.21;80.34;96286.78;5134927;27;20956;-53
2022/03/16 05:38:15;;;;;;;1.60;1.60;;;;;;;5.17;84.09;96269.81;5135506;27;20438;-53
2022/03/16 05:40:44;;;;;;;0.30;0.30;;;;;;;4.95;83.28;96193.19;5135062;27;20558;-54
2022/03/16 05:43:13;;;;;;;0.30;0.30;;;;;;;5.56;79.37;96266.94;5135269;27;20505;-54
2022/03/16 05:45:42;;;;;;;1.03;1.03;;;;;;;4.76;87.99;96265.81;5134553;27;20505;-54
2022/03/16 05:48:11;;;;;;;1.43;1.33;;;;;;;4.24;94.21;96260.78;5133585;27;20484;-53
2022/03/16 05:50:44;;;;;;;0.40;0.40;;;;;;;3.93;96.40;96240.47;5134479;27;20522;-54
2022/03/16 05:53:13;;;;;;;0.73;0.50;;;;;;;3.97;100.00;96252.19;5134645;27;20538;-53
2022/03/16 05:55:42;;;;;;;0.30;0.20;;;;;;;3.49;100.00;96262.06;5134759;27;20477;-53
2022/03/16 05:58:10;;;;;;;1.03;1.03;;;;;;;3.22;100.00;96255.22;5134579;27;20510;-53
2022/03/16 06:00:42;;;;;;;1.17;1.17;;;;;;;3.24;100.00;96261.06;5133991;27;20494;-53
2022/03/16 06:03:11;;;;;;;0.70;0.70;;;;;;;3.33;100.00;96266.91;5133862;27;20474;-54
2022/03/16 06:05:41;;;;;;;0.50;0.50;;;;;;;3.85;100.00;96272.13;5134746;27;20946;-53
2022/03/16 06:08:10;;;;;;;0.30;0.20;;;;;;;3.93;100.00;96263.25;5134449;27;20470;-53
2022/03/16 06:10:39;;;;;;;0.30;0.20;;;;;;;4.31;96.78;96270.22;5134800;27;20459;-53
2022/03/16 06:13:10;;;;;;;0.57;0.57;;;;;;;4.38;92.28;96276.25;5135046;27;20423;-53
2022/03/16 06:15:42;;;;;;;2.33;1.07;;;;;;;4.93;88.01;96261.66;5134384;27;20470;-53
2022/03/16 06:18:12;;;;;;;2.60;1.27;;;;;;;5.10;83.80;96264.63;5134146;27;20513;-53
2022/03/16 06:20:43;;;;;;;0.40;0.40;;;;;;;4.72;88.19;96262.00;5134278;27;20832;-53
2022/03/16 06:23:11;;;;;;;0.30;0.20;;;;;;;5.29;85.98;96266.31;5134847;27;20431;-53
2022/03/16 06:25:40;;;;;;;0.30;0.20;;;;;;;5.62;80.29;96263.41;5134365;27;20479;-53
2022/03/16 06:28:09;;;;;;;0.30;0.20;;;;;;;5.32;75.90;96258.00;5134563;27;20518;-53
2022/03/16 06:30:37;;;;;;;0.30;0.20;;;;;;;5.26;76.49;96253.59;5134726;27;20458;-53
2022/03/16 06:33:06;;;;;;;0.57;0.57;;;;;;;5.69;70.96;96254.47;5134373;27;20462;-53
2022/03/16 06:35:34;;;;;;;0.50;0.50;;;;;;;5.71;70.99;96241.91;5134382;27;21018;-53
2022/03/16 06:38:04;;;;;;;0.30;0.20;;;;;;;4.99;72.73;96166.25;5134051;27;20475;-54
2022/03/16 06:40:32;;;;;;;0.40;0.40;;;;;;;5.76;71.87;96241.25;5134242;27;20868;-54
2022/03/16 06:43:00;;;;;;;0.40;0.33;;;;;;;5.80;70.70;96224.00;5133370;27;20419;-54
2022/03/16 06:45:30;;;;;;;1.00;0.47;;;;;;;6.09;68.44;96239.16;5133628;27;20934;-53
2022/03/16 06:48:00;;;;;;;0.30;0.20;;;;;;;6.10;68.80;96243.38;5134108;27;20458;-54
2022/03/16 06:50:30;;;;;;;0.30;0.20;;;;;;;6.13;68.97;96234.25;5134077;27;20961;-54
2022/03/16 06:52:59;;;;;;;0.70;0.70;;;;;;;6.29;68.22;96233.66;5134131;27;20502;-53
2022/03/16 06:55:29;;;;;;;0.30;0.20;;;;;;;5.94;69.43;96245.78;5133918;27;20899;-53
2022/03/16 06:57:58;;;;;;;1.43;1.43;;;;;;;5.79;70.40;96233.72;5133971;27;20847;-53
2022/03/16 07:00:26;;;;;;;0.30;0.20;;;;;;;5.58;72.97;96244.66;5134049;27;20494;-54
2022/03/16 07:02:57;;;;;;;0.73;0.73;;;;;;;5.70;73.75;96247.38;5133908;27;20419;-54
2022/03/16 07:05:28;;;;;;;2.63;2.53;;;;;;;5.22;77.55;96247.16;5133485;27;20917;-54
2022/03/16 07:07:57;;;;;;;0.53;0.53;;;;;;;5.07;81.30;96250.09;5133288;27;20494;-54
2022/03/16 07:10:26;;;;;;;6.77;0.73;;;;;;;5.40;78.45;96239.34;5133172;27;20526;-54
2022/03/16 07:12:56;;;;;;;1.30;1.30;;;;;;;5.73;77.29;96229.34;5133177;27;20430;-54
2022/03/16 07:15:25;;;;;;;2.93;0.63;;;;;;;5.58;73.96;96157.06;5133323;27;20462;-54
2022/03/16 07:17:54;;;;;;;0.80;0.80;;;;;;;6.20;71.70;96230.50;5133709;27;20535;-54
2022/03/16 07:20:23;;;;;;;0.50;0.50;;;;;;;6.39;70.17;96221.59;5132851;27;20422;-54
2022/03/16 07:23:02;;;;;;;0.93;0.93;;;;;;;6.53;69.81;96213.53;5133386;27;20894;-54
2022/03/16 07:25:36;;;;;;;1.70;1.13;;;;;;;6.26;70.20;96197.25;5133371;27;20431;-53
2022/03/16 07:28:07;;;;;;;0.40;0.30;;;;;;;7.10;65.55;96189.22;5133910;27;20943;-53
2022/03/16 07:30:35;;;;;;;1.40;1.40;;;;;;;6.67;65.43;96188.63;5133077;27;20517;-53
2022/03/16 07:33:04;;;;;;;1.00;1.00;;;;;;;6.58;64.42;96172.31;5133210;27;20448;-53
2022/03/16 07:35:34;;;;;;;0.50;0.47;;;;;;;6.44;67.19;96178.81;5133296;27;20529;-53
2022/03/16 07:38:02;;;;;;;3.80;2.20;;;;;;;6.49;66.44;96178.13;5132802;27;20838;-53
2022/03/16 07:40:33;;;;;;;2.17;0.60;;;;;;;6.72;65.62;96171.13;5133036;27;20944;-54
2022/03/16 07:43:02;;;;;;;0.60;0.60;;;;;;;7.12;63.40;96160.81;5132002;27;20473;-54
2022/03/16 07:45:32;;;;;;;1.50;1.50;;;;;;;6.98;61.84;96159.41;5132976;27;21025;-53
2022/03/16 07:48:01;;;;;;;1.50;1.40;;;;;;;7.11;62.52;96156.53;5132990;27;20920;-53
2022/03/16 07:50:30;;;;;;;1.10;1.10;;;;;;;6.85;63.80;96141.16;5133065;27;20458;-53
2022/03/16 07:52:58;;;;;;;1.00;0.90;;;;;;;6.69;64.80;96149.69;5133987;27;20439;-53
2022/03/16 07:55:27;;;;;;;1.90;1.90;;;;;;;6.93;63.73;96167.19;5133221;27;20990;-53
2022/03/16 07:57:55;;;;;;;1.90;1.90;;;;;;;6.80;65.65;96162.09;5132802;27;20521;-53
2022/03/16 08:00:24;;;;;;;0.60;0.60;;;;;;;6.96;66.83;96166.72;5133025;27;20427;-53
2022/03/16 08:03:01;;;;;;;1.80;1.70;;;;;;;6.46;68.38;96163.56;5132424;27;20463;-53
2022/03/16 08:05:30;;;;;;;2.40;2.20;;;;;;;5.97;72.94;96174.31;5132793;27;20438;-53
2022/03/16 08:07:59;;;;;;;3.67;2.60;;;;;;;6.17;73.61;96170.41;5132539;27;20561;-52
2022/03/16 08:10:27;;;;;;;1.30;0.60;;;;;;;6.51;72.61;96161.06;5132075;28;20423;-53
2022/03/16 08:12:56;;;;;;;3.40;3.20;;;;;;;6.68;70.29;96166.53;5132984;28;20513;-53
2022/03/16 08:15:24;;;;;;;2.20;2.00;;;;;;;7.20;67.85;96175.50;5132976;27;20505;-53
2022/03/16 08:17:53;;;;;;;0.40;0.40;;;;;;;7.11;67.79;96179.50;5132961;27;20423;-53
2022/03/16 08:20:23;;;;;;;0.37;0.30;;;;;;;6.52;71.37;96175.06;5132489;28;20946;-52
2022/03/16 08:22:56;;;;;;;0.67;0.67;;;;;;;6.90;70.42;96178.19;5132532;28;20527;-53
2022/03/16 08:25:41;;;;;;;0.40;0.40;;;;;;;6.67;71.80;96180.72;5132713;28;20427;-53
2022/03/16 08:28:10;;;;;;;3.30;2.57;;;;;;;6.58;71.46;96180.22;5132516;28;21027;-53
2022/03/16 08:30:38;;;;;;;1.37;1.27;;;;;;;6.78;72.29;96190.50;5132396;28;20930;-52
2022/03/16 08:33:07;;;;;;;0.40;0.40;;;;;;;6.11;69.92;96063.41;5132510;27;20422;-53
2022/03/16 08:35:36;;;;;;;0.67;0.67;;;;;;;6.86;69.36;96177.00;5132865;28;20457;-53
2022/03/16 08:38:05;;;;;;;0.50;0.50;;;;;;;7.12;68.22;96171.34;5132499;28;20525;-53
2022/03/16 08:40:34;;;;;;;0.30;0.30;;;;;;;6.95;68.93;96165.13;5132723;28;20860;-53
2022/03/16 08:43:02;;;;;;;0.43;0.43;;;;;;;6.91;69.31;96163.94;5132085;28;20557;-53
2022/03/16 08:45:31;;;;;;;0.30;0.20;;;;;;;7.04;67.68;96154.03;5132670;28;20851;-53
2022/03/16 08:48:01;;;;;;;1.20;0.90;;;;;;;7.18;68.05;96159.91;5132372;28;20422;-53
2022/03/16 08:50:30;;;;;;;1.07;1.00;;;;;;;7.70;64.56;96152.94;5131998;28;20426;-53
2022/03/16 08:53:00;;;;;;;0.80;0.80;;;;;;;7.63;64.68;96142.50;5132660;28;20434;-53
2022/03/16 08:55:29;;;;;;;1.97;1.90;;;;;;;7.80;63.72;96131.22;5132262;27;20999;-53
2022/03/16 08:57:58;;;;;;;0.40;0.40;;;;;;;8.17;61.42;96135.97;5132230;27;20464;-54
2022/03/16 09:00:26;;;;;;;0.50;0.50;;;;;;;8.25;60.51;96122.41;5132114;28;20926;-54
2022/03/16 09:02:56;;;;;;;1.37;1.27;;;;;;;7.88;59.46;96126.41;5132075;28;20461;-53
2022/03/16 09:05:25;;;;;;;1.60;1.60;;;;;;;7.53;60.80;96123.00;5132579;27;20434;-54
2022/03/16 09:07:54;;;;;;;2.90;1.50;;;;;;;7.83;61.75;96121.03;5135938;27;20500;-52
2022/03/16 09:10:24;;;;;;;0.80;0.80;;;;;;;8.52;58.78;96117.41;5135960;27;20991;-53
2022/03/16 09:12:52;;;;;;;2.57;2.47;;;;;;;9.02;54.71;96104.25;5135944;27;20927;-52
2022/03/16 09:15:21;;;;;;;0.87;0.67;;;;;;;9.16;54.71;96102.13;5135697;27;20433;-53
2022/03/16 09:17:49;;;;;;;2.70;1.00;;;;;;;8.39;55.52;96091.28;5135774;27;20961;-53
2022/03/16 09:20:18;;;;;;;1.30;1.20;;;;;;;9.17;53.68;96096.56;5135574;27;20427;-53
2022/03/16 09:22:46;;;;;;;1.13;1.03;;;;;;;9.11;53.86;96097.53;5135715;27;20490;-53
2022/03/16 09:25:15;;;;;;;0.40;0.30;;;;;;;9.24;52.10;96085.81;5135997;27;20458;-53
2022/03/16 09:27:45;;;;;;;1.17;0.80;;;;;;;9.07;51.73;96085.84;5135661;27;20522;-52
2022/03/16 09:30:14;;;;;;;1.40;1.30;;;;;;;8.67;49.87;96085.97;5134960;27;20414;-52
2022/03/16 09:32:42;;;;;;;0.70;0.70;;;;;;;9.10;49.35;96079.25;5135468;27;20455;-52
2022/03/16 09:35:10;;;;;;;2.53;1.50;;;;;;;8.50;51.26;96090.41;5135627;27;20453;-52
2022/03/16 09:37:40;;;;;;;0.50;0.40;;;;;;;8.42;53.32;96088.16;5135495;27;20476;-54
2022/03/16 09:40:09;;;;;;;1.73;1.70;;;;;;;8.08;53.47;96096.97;5135512;27;20419;-53
2022/03/16 09:42:39;;;;;;;5.10;2.30;;;;;;;7.90;55.35;96095.28;5135408;27;20470;-53
2022/03/16 09:45:17;;;;;;;1.40;0.40;;;;;;;8.49;54.57;96091.47;5135495;27;20423;-53
2022/03/16 09:47:46;;;;;;;0.40;0.30;;;;;;;8.55;53.48;96064.06;5135584;27;20797;-53
2022/03/16 09:50:20;;;;;;;0.30;0.20;;;;;;;8.54;54.78;96088.91;5135361;27;20422;-53
2022/03/16 09:52:49;;;;;;;2.40;2.30;;;;;;;8.80;54.73;96085.66;5135151;27;20434;-52
2022/03/16 09:55:20;;;;;;;1.07;0.70;;;;;;;9.29;51.60;96072.66;5135199;27;20427;-53
2022/03/16 09:57:49;;;;;;;0.50;0.50;;;;;;;9.87;49.80;96074.78;5135141;27;20928;-52
2022/03/16 10:00:19;;;;;;;0.60;0.60;;;;;;;9.29;51.66;96075.31;5134911;27;20459;-53
2022/03/16 10:02:48;;;;;;;3.63;1.20;;;;;;;9.17;51.49;96058.75;5134347;27;21054;-53
2022/03/16 10:05:19;;;;;;;0.60;0.40;;;;;;;9.58;50.69;96045.84;5134741;27;20425;-53
2022/03/16 10:07:48;;;;;;;0.50;0.50;;;;;;;10.67;48.88;96046.56;5134479;27;20466;-52
2022/03/16 10:13:18;;;;;;;2.73;0.50;;;;;;;12.00;44.53;96036.56;5134651;27;20483;-51
2022/03/16 10:15:48;;;;;;;0.47;0.40;;;;;;;12.58;41.61;96028.19;5133630;27;20438;-51
2022/03/16 10:18:18;;;;;;;0.40;0.30;;;;;;;11.72;44.85;96023.69;5134603;27;20434;-51
2022/03/16 10:20:47;;;;;;;1.40;1.40;;;;;;;12.14;43.57;96021.72;5134678;27;20906;-51
2022/03/16 10:23:17;;;;;;;1.57;1.47;;;;;;;12.49;41.59;96013.84;5134337;27;20822;-51
2022/03/16 10:25:51;;;;;;;1.47;1.37;;;;;;;13.12;38.46;96012.56;5134668;27;20900;-51
2022/03/16 10:28:21;;;;;;;3.93;1.40;;;;;;;13.19;37.86;96009.59;5133876;27;20430;-51
2022/03/16 10:30:56;;;;;;;1.33;1.33;;;;;;;13.82;37.04;96000.13;5134598;27;20423;-50
2022/03/16 10:33:29;;;;;;;0.73;0.73;;;;;;;14.07;36.20;96000.00;5134831;27;20434;-52
2022/03/16 10:36:01;;;;;;;0.87;0.87;;;;;;;12.80;36.91;95987.25;5134372;27;20422;-51
2022/03/16 10:38:30;;;;;;;0.53;0.50;;;;;;;13.82;37.53;95987.59;5134180;27;20512;-50
2022/03/16 10:41:12;;;;;;;1.50;1.40;;;;;;;13.12;36.62;95993.13;5134200;27;20465;-51
2022/03/16 10:46:39;;;;;;;1.10;1.10;;;;;;;14.11;35.31;95970.94;5133869;27;20430;-51
2022/03/16 10:49:09;;;;;;;0.50;0.40;;;;;;;13.26;35.90;95968.34;5134289;27;20425;-52
2022/03/16 10:51:39;;;;;;;9.47;1.27;;;;;;;12.15;36.25;95882.47;5133741;27;20442;-52
2022/03/16 10:54:25;;;;;;;0.70;0.70;;;;;;;13.38;35.67;95963.50;5134521;27;20434;-53
2022/03/16 10:56:56;;;;;;;0.87;0.87;;;;;;;13.99;35.17;95955.25;5133986;27;20439;-53
2022/03/16 10:59:29;;;;;;;3.73;1.47;;;;;;;13.95;34.86;95940.91;5133803;27;20437;-53
2022/03/16 11:02:03;;;;;;;1.70;0.97;;;;;;;14.78;33.23;95944.34;5133701;27;20438;-54
2022/03/16 11:04:34;;;;;;;8.53;1.40;;;;;;;14.04;34.18;95933.13;5133846;27;20468;-54
2022/03/16 11:07:05;;;;;;;0.87;0.87;;;;;;;14.38;34.85;95931.34;5133277;27;21003;-54
2022/03/16 11:09:35;;;;;;;0.47;0.47;;;;;;;15.21;34.67;95945.28;5133717;27;20446;-54
2022/03/16 11:15:11;;;;;;;1.33;1.23;;;;;;;14.98;34.46;95917.47;5061292;27;20442;-55
2022/03/16 11:17:42;;;;;;;1.00;0.93;;;;;;;14.99;33.85;95862.22;5133435;27;20915;-55
2022/03/16 11:20:12;;;;;;;7.60;0.50;;;;;;;15.81;32.05;95909.88;5133403;27;20438;-55
2022/03/16 11:24:15;;;;;;;0.70;0.70;;;;;;;16.84;32.13;95897.41;5133459;27;20447;-55
2022/03/16 11:25:59;;;;;;;0.57;0.57;;;;;;;16.52;32.86;95858.84;5133416;27;20418;-55
2022/03/16 11:28:39;;;;;;;2.63;0.47;;;;;;;15.22;32.48;95894.28;5132781;27;20437;-55
2022/03/16 11:31:09;;;;;;;2.70;1.17;;;;;;;16.18;32.30;95886.91;5133526;27;20537;-55
2022/03/16 11:33:50;;;;;;;0.83;0.83;;;;;;;15.57;32.87;95884.28;5133586;27;20427;-54
2022/03/16 11:36:33;;;;;;;2.83;1.60;;;;;;;15.49;32.81;95877.69;5133314;27;20844;-54
2022/03/16 11:39:04;;;;;;;0.63;0.57;;;;;;;14.91;33.83;95871.66;5133939;27;20477;-61
2022/03/16 11:41:34;;;;;;;1.27;1.17;;;;;;;14.39;33.87;95876.94;5136403;27;20805;-60
2022/03/16 11:44:26;;;;;;;0.93;0.93;;;;;;;15.07;33.08;95866.94;5133309;27;21026;-59
2022/03/16 11:47:35;;;;;;;0.83;0.83;;;;;;;15.47;33.05;95860.38;5135122;27;20437;-60
2022/03/16 11:50:14;;;;;;;0.60;0.40;;;;;;;15.63;32.13;95843.88;5134706;27;20434;-60
2022/03/16 11:53:03;;;;;;;2.17;0.87;;;;;;;15.69;32.35;95831.22;5140374;27;20430;-59
2022/03/16 11:55:50;;;;;;;10.73;1.70;;;;;;;15.74;32.85;95845.31;5134942;27;20445;-59
2022/03/16 11:58:31;;;;;;;1.93;1.83;;;;;;;15.28;32.34;95841.59;5133575;27;20927;-58
2022/03/16 12:01:28;;;;;;;1.80;1.60;;;;;;;15.46;32.30;95832.84;5133534;27;20430;-58
2022/03/16 12:04:12;;;;;;;1.00;1.00;;;;;;;16.65;31.54;95838.56;5132587;27;20534;-57